TimeCDT,TemperatureF,Dew PointF,Humidity,Sea Level PressureIn,VisibilityMPH,Wind Direction,Wind SpeedMPH,Gust SpeedMPH,PrecipitationIn,Events,Conditions,WindDirDegrees,DateUTC
12:15 AM,36.9,27.9,70,30.33,10.0,NNE,4.6,-,N/A,,Clear,20,2012-10-05 05:15:00
12:35 AM,37.4,28.2,69,30.33,10.0,NNE,3.5,-,N/A,,Scattered Clouds,20,2012-10-05 05:35:00
12:55 AM,36.1,27.7,71,30.33,10.0,Calm,Calm,-,N/A,,Clear,0,2012-10-05 05:55:00
1:15 AM,34.9,27.3,74,30.34,10.0,Calm,Calm,-,N/A,,Clear,0,2012-10-05 06:15:00
1:35 AM,33.4,26.6,76,30.33,10.0,Calm,Calm,-,N/A,,Clear,0,2012-10-05 06:35:00
1:55 AM,31.1,25.7,80,30.32,10.0,Calm,Calm,-,N/A,,Clear,0,2012-10-05 06:55:00
2:15 AM,32.5,26.4,78,30.32,10.0,Calm,Calm,-,N/A,,Scattered Clouds,0,2012-10-05 07:15:00
2:35 AM,32.9,26.2,76,30.32,10.0,Calm,Calm,-,N/A,,Clear,0,2012-10-05 07:35:00
2:55 AM,30.7,25.3,80,30.33,10.0,Calm,Calm,-,N/A,,Clear,0,2012-10-05 07:55:00
3:15 AM,30.2,24.8,80,30.33,10.0,Calm,Calm,-,N/A,,Clear,0,2012-10-05 08:15:00
3:35 AM,30.2,25.3,82,30.31,10.0,Calm,Calm,-,N/A,,Clear,0,2012-10-05 08:35:00
3:55 AM,29.5,25.3,85,30.31,10.0,NW,4.6,-,N/A,,Clear,320,2012-10-05 08:55:00
4:15 AM,31.3,26.6,83,30.31,10.0,Calm,Calm,-,N/A,,Clear,0,2012-10-05 09:15:00
4:35 AM,32.0,27.5,83,30.29,10.0,Calm,Calm,-,N/A,,Scattered Clouds,0,2012-10-05 09:35:00
4:55 AM,32.9,27.5,81,30.31,10.0,Calm,Calm,-,N/A,,Mostly Cloudy,0,2012-10-05 09:55:00
5:15 AM,33.8,27.9,79,30.32,10.0,West,3.5,-,N/A,,Overcast,280,2012-10-05 10:15:00
5:35 AM,34.7,28.2,77,30.32,10.0,WNW,4.6,-,N/A,,Overcast,290,2012-10-05 10:35:00
5:55 AM,34.9,28.8,78,30.32,10.0,Calm,Calm,-,N/A,,Overcast,0,2012-10-05 10:55:00
6:15 AM,35.1,28.6,77,30.32,10.0,Calm,Calm,-,N/A,,Overcast,0,2012-10-05 11:15:00
6:35 AM,35.6,28.9,77,30.31,10.0,Calm,Calm,-,N/A,,Overcast,0,2012-10-05 11:35:00
6:55 AM,35.6,29.1,77,30.31,10.0,Calm,Calm,-,N/A,,Overcast,0,2012-10-05 11:55:00
7:15 AM,36.0,29.8,78,30.31,10.0,North,4.6,-,N/A,,Overcast,360,2012-10-05 12:15:00
7:35 AM,36.5,30.0,77,30.32,10.0,North,3.5,-,N/A,,Overcast,10,2012-10-05 12:35:00
7:55 AM,36.9,29.3,74,30.31,10.0,NNE,4.6,-,N/A,,Overcast,20,2012-10-05 12:55:00
8:15 AM,37.0,28.9,73,30.32,10.0,Calm,Calm,-,N/A,,Overcast,0,2012-10-05 13:15:00
8:35 AM,37.8,28.6,69,30.33,10.0,Calm,Calm,-,N/A,,Overcast,0,2012-10-05 13:35:00
8:55 AM,37.9,28.2,68,30.35,10.0,North,3.5,-,N/A,,Overcast,350,2012-10-05 13:55:00
9:15 AM,37.9,28.4,69,30.35,10.0,Calm,Calm,-,N/A,,Overcast,0,2012-10-05 14:15:00
9:35 AM,38.3,28.0,67,30.35,10.0,NNE,5.8,-,N/A,,Overcast,30,2012-10-05 14:35:00
9:55 AM,38.7,28.2,66,30.36,10.0,NNE,4.6,-,N/A,,Overcast,30,2012-10-05 14:55:00
10:15 AM,39.2,28.2,65,30.36,10.0,NNE,5.8,-,N/A,,Overcast,30,2012-10-05 15:15:00
10:35 AM,39.9,28.4,63,30.37,10.0,NNE,5.8,-,N/A,,Overcast,20,2012-10-05 15:35:00
10:55 AM,40.6,28.9,63,30.37,10.0,NNE,9.2,-,N/A,,Overcast,20,2012-10-05 15:55:00
11:15 AM,38.3,32.0,78,30.38,10.0,NNE,9.2,-,N/A,Rain,Light Rain,20,2012-10-05 16:15:00
11:35 AM,36.9,33.3,87,30.38,4.0,NNE,6.9,-,0.01,Rain,Light Rain,20,2012-10-05 16:35:00
11:55 AM,37.0,34.2,89,30.38,5.0,NNE,8.1,-,0.02,Rain,Rain,30,2012-10-05 16:55:00
12:15 PM,37.0,34.2,89,30.38,7.0,NE,8.1,-,0.01,Rain,Light Rain,40,2012-10-05 17:15:00
12:35 PM,37.8,34.9,89,30.39,10.0,Calm,Calm,-,0.01,Rain,Light Rain,0,2012-10-05 17:35:00
12:55 PM,37.8,34.5,88,30.38,10.0,Calm,Calm,-,0.02,Rain,Light Rain,0,2012-10-05 17:55:00
1:35 PM,39.2,35.4,86,30.37,10.0,North,4.6,-,N/A,,Light Drizzle,10,2012-10-05 18:35:00
1:55 PM,39.2,34.7,84,30.36,10.0,NNE,3.5,-,N/A,Rain,Light Rain,20,2012-10-05 18:55:00
2:15 PM,39.7,35.4,85,30.34,10.0,North,4.6,-,N/A,,Light Drizzle,360,2012-10-05 19:15:00
2:35 PM,40.1,35.4,83,30.34,10.0,North,4.6,-,N/A,,Drizzle,360,2012-10-05 19:35:00
2:55 PM,40.3,35.8,84,30.34,10.0,NNW,6.9,-,N/A,,Overcast,340,2012-10-05 19:55:00
3:15 PM,41.0,34.5,78,30.33,10.0,NW,5.8,-,N/A,,Overcast,310,2012-10-05 20:15:00
3:35 PM,41.5,34.7,77,30.33,10.0,NNW,4.6,-,N/A,,Overcast,340,2012-10-05 20:35:00
3:55 PM,41.9,34.7,76,30.32,10.0,NNW,6.9,-,N/A,,Overcast,340,2012-10-05 20:55:00
4:15 PM,42.6,34.9,74,30.32,10.0,NW,5.8,-,N/A,,Overcast,320,2012-10-05 21:15:00
4:35 PM,42.8,35.4,75,30.32,10.0,NNW,4.6,-,N/A,,Overcast,340,2012-10-05 21:35:00
4:55 PM,43.0,35.1,74,30.32,10.0,NW,6.9,-,N/A,,Overcast,310,2012-10-05 21:55:00
5:15 PM,43.3,34.5,71,30.32,10.0,NW,8.1,-,N/A,,Overcast,310,2012-10-05 22:15:00
5:35 PM,43.7,35.1,72,30.31,10.0,WNW,6.9,-,N/A,,Overcast,300,2012-10-05 22:35:00
5:55 PM,43.7,34.9,71,30.31,10.0,NW,6.9,-,N/A,,Overcast,310,2012-10-05 22:55:00
6:15 PM,43.7,34.9,71,30.32,10.0,WNW,8.1,-,N/A,,Overcast,300,2012-10-05 23:15:00
6:35 PM,43.7,35.1,72,30.32,10.0,WNW,6.9,-,N/A,,Overcast,290,2012-10-05 23:35:00
6:55 PM,43.2,35.4,74,30.31,10.0,WNW,5.8,-,N/A,,Overcast,290,2012-10-05 23:55:00
7:15 PM,42.4,36.0,78,30.32,10.0,West,4.6,-,N/A,,Overcast,280,2012-10-06 00:15:00
7:35 PM,41.9,36.1,80,30.33,10.0,West,5.8,-,N/A,,Overcast,260,2012-10-06 00:35:00
7:55 PM,41.9,36.0,79,30.33,10.0,WSW,5.8,-,N/A,,Overcast,250,2012-10-06 00:55:00
8:15 PM,41.9,36.0,79,30.34,10.0,West,8.1,-,N/A,,Overcast,270,2012-10-06 01:15:00
8:35 PM,41.9,35.8,79,30.34,10.0,West,8.1,-,N/A,,Overcast,280,2012-10-06 01:35:00
8:55 PM,41.9,35.6,78,30.34,10.0,West,8.1,-,N/A,,Overcast,280,2012-10-06 01:55:00
9:15 PM,41.5,35.8,80,30.35,10.0,WNW,6.9,-,N/A,,Overcast,290,2012-10-06 02:15:00
9:35 PM,41.4,35.8,81,30.35,10.0,West,5.8,-,N/A,,Overcast,280,2012-10-06 02:35:00
9:55 PM,41.4,35.8,81,30.35,10.0,WNW,6.9,-,N/A,,Overcast,290,2012-10-06 02:55:00
10:35 PM,41.0,36.1,83,30.35,10.0,WNW,6.9,-,N/A,,Overcast,300,2012-10-06 03:35:00
10:55 PM,41.0,36.1,83,30.35,10.0,NW,8.1,-,N/A,,Overcast,310,2012-10-06 03:55:00
11:15 PM,40.8,36.1,83,30.35,10.0,NW,8.1,-,N/A,,Overcast,310,2012-10-06 04:15:00
11:35 PM,40.6,36.5,85,30.35,10.0,NW,8.1,-,N/A,,Overcast,310,2012-10-06 04:35:00
11:55 PM,40.5,36.5,86,30.34,10.0,NW,6.9,-,N/A,,Overcast,320,2012-10-06 04:55:00